Map

Track Data

SID SEASON NUMBER BASIN SUBBASIN NAME ISO_TIME NATURE LAT LON WMO_WIND WMO_PRES WMO_AGENCY TRACK_TYPE DIST2LAND LANDFALL IFLAG USA_AGENCY USA_ATCF_ID USA_LAT USA_LON USA_RECORD USA_STATUS USA_WIND USA_PRES USA_SSHS USA_R34_NE USA_R34_SE USA_R34_SW USA_R34_NW USA_R50_NE USA_R50_SE USA_R50_SW USA_R50_NW USA_R64_NE USA_R64_SE USA_R64_SW USA_R64_NW USA_POCI USA_ROCI USA_RMW USA_EYE TOKYO_LAT TOKYO_LON TOKYO_GRADE TOKYO_WIND TOKYO_PRES TOKYO_R50_DIR TOKYO_R50_LONG TOKYO_R50_SHORT TOKYO_R30_DIR TOKYO_R30_LONG TOKYO_R30_SHORT TOKYO_LAND CMA_LAT CMA_LON CMA_CAT CMA_WIND CMA_PRES HKO_LAT HKO_LON HKO_CAT HKO_WIND HKO_PRES NEWDELHI_LAT NEWDELHI_LON NEWDELHI_GRADE NEWDELHI_WIND NEWDELHI_PRES NEWDELHI_CI NEWDELHI_DP NEWDELHI_POCI REUNION_LAT REUNION_LON REUNION_TYPE REUNION_WIND REUNION_PRES REUNION_TNUM REUNION_CI REUNION_RMW REUNION_R34_NE REUNION_R34_SE REUNION_R34_SW REUNION_R34_NW REUNION_R50_NE REUNION_R50_SE REUNION_R50_SW REUNION_R50_NW REUNION_R64_NE REUNION_R64_SE REUNION_R64_SW REUNION_R64_NW BOM_LAT BOM_LON BOM_TYPE BOM_WIND BOM_PRES BOM_TNUM BOM_CI BOM_RMW BOM_R34_NE BOM_R34_SE BOM_R34_SW BOM_R34_NW BOM_R50_NE BOM_R50_SE BOM_R50_SW BOM_R50_NW BOM_R64_NE BOM_R64_SE BOM_R64_SW BOM_R64_NW BOM_ROCI BOM_POCI BOM_EYE BOM_POS_METHOD BOM_PRES_METHOD NADI_LAT NADI_LON NADI_CAT NADI_WIND NADI_PRES WELLINGTON_LAT WELLINGTON_LON WELLINGTON_WIND WELLINGTON_PRES DS824_LAT DS824_LON DS824_STAGE DS824_WIND DS824_PRES TD9636_LAT TD9636_LON TD9636_STAGE TD9636_WIND TD9636_PRES TD9635_LAT TD9635_LON TD9635_WIND TD9635_PRES TD9635_ROCI NEUMANN_LAT NEUMANN_LON NEUMANN_CLASS NEUMANN_WIND NEUMANN_PRES MLC_LAT MLC_LON MLC_CLASS MLC_WIND MLC_PRES USA_GUST BOM_GUST BOM_GUST_PER REUNION_GUST REUNION_GUST_PER USA_SEAHGT USA_SEARAD_NE USA_SEARAD_SE USA_SEARAD_SW USA_SEARAD_NW STORM_SPEED STORM_DIR
1916320N14130 1916 69 WP MM NOT_NAMED 1916-11-15 10:00:00 NR 14.0000 129.700 main 497 487 __________O___ -1 14.0000 129.700 2 3 277
1916320N14130 1916 69 WP MM NOT_NAMED 1916-11-15 12:00:00 NR 14.0113 129.598 main 487 468 __________P___ -1 14.0113 129.598 2 3 277
1916320N14130 1916 69 WP MM NOT_NAMED 1916-11-15 15:00:00 NR 14.0302 129.440 main 468 458 __________P___ -1 14.0302 129.440 2 3 278
1916320N14130 1916 69 WP MM NOT_NAMED 1916-11-15 18:00:00 NR 14.0543 129.268 main 463 444 __________P___ -1 14.0543 129.268 2 4 279
1916320N14130 1916 69 WP MM NOT_NAMED 1916-11-15 21:00:00 NR 14.0868 129.072 main 444 434 __________P___ -1 14.0868 129.072 2 4 280
1916320N14130 1916 69 WP MM NOT_NAMED 1916-11-15 22:00:00 NR 14.1000 129.000 main 434 416 __________O___ -1 14.1000 129.000 2 4 281
1916320N14130 1916 69 WP MM NOT_NAMED 1916-11-16 00:00:00 NR 14.1302 128.845 main 416 403 __________P___ -1 14.1302 128.845 2 5 282
1916320N14130 1916 69 WP MM NOT_NAMED 1916-11-16 03:00:00 NR 14.1819 128.587 main 403 376 __________P___ -1 14.1819 128.587 2 5 281
1916320N14130 1916 69 WP MM NOT_NAMED 1916-11-16 06:00:00 NR 14.2357 128.304 main 376 358 __________P___ -1 14.2357 128.304 2 6 280
1916320N14130 1916 69 WP MM NOT_NAMED 1916-11-16 09:00:00 NR 14.2854 128.003 main 358 350 __________P___ -1 14.2854 128.003 2 6 279
1916320N14130 1916 69 WP MM NOT_NAMED 1916-11-16 10:00:00 NR 14.3000 127.900 main 350 334 __________O___ -1 14.3000 127.900 2 6 276
1916320N14130 1916 69 WP MM NOT_NAMED 1916-11-16 12:00:00 NR 14.3198 127.687 main 334 311 __________P___ -1 14.3198 127.687 2 6 275
1916320N14130 1916 69 WP MM NOT_NAMED 1916-11-16 15:00:00 NR 14.3431 127.354 main 311 286 __________P___ -1 14.3431 127.354 2 6 274
1916320N14130 1916 69 WP MM NOT_NAMED 1916-11-16 18:00:00 NR 14.3643 127.020 main 286 254 __________P___ -1 14.3643 127.020 2 6 274
1916320N14130 1916 69 WP MM NOT_NAMED 1916-11-16 21:00:00 NR 14.3896 126.701 main 254 243 __________P___ -1 14.3896 126.701 2 6 275
1916320N14130 1916 69 WP MM NOT_NAMED 1916-11-16 22:00:00 NR 14.4000 126.600 main 243 222 __________O___ -1 14.4000 126.600 2 6 278
1916320N14130 1916 69 WP MM NOT_NAMED 1916-11-17 00:00:00 NR 14.4275 126.416 main 222 205 __________P___ -1 14.4275 126.416 2 5 280
1916320N14130 1916 69 WP MM NOT_NAMED 1916-11-17 03:00:00 NR 14.4751 126.159 main 205 175 __________P___ -1 14.4751 126.159 2 5 282
1916320N14130 1916 69 WP MM NOT_NAMED 1916-11-17 06:00:00 NR 14.5277 125.917 main 175 160 __________P___ -1 14.5277 125.917 2 5 283
1916320N14130 1916 69 WP MM NOT_NAMED 1916-11-17 09:00:00 NR 14.5820 125.680 main 160 151 __________P___ -1 14.5820 125.680 2 5 283
1916320N14130 1916 69 WP MM NOT_NAMED 1916-11-17 10:00:00 NR 14.6000 125.600 main 151 133 __________O___ -1 14.6000 125.600 2 5 283
1916320N14130 1916 69 WP MM NOT_NAMED 1916-11-17 12:00:00 NR 14.6352 125.438 main 133 124 __________P___ -1 14.6352 125.438 2 5 282
1916320N14130 1916 69 WP MM NOT_NAMED 1916-11-17 15:00:00 NR 14.6862 125.191 main 124 101 __________P___ -1 14.6862 125.191 2 5 282
1916320N14130 1916 69 WP MM NOT_NAMED 1916-11-17 18:00:00 NR 14.7356 124.939 main 101 99 __________P___ -1 14.7356 124.939 2 5 281
1916320N14130 1916 69 WP MM NOT_NAMED 1916-11-17 21:00:00 NR 14.7840 124.685 main 99 95 __________P___ -1 14.7840 124.685 2 5 281
1916320N14130 1916 69 WP MM NOT_NAMED 1916-11-17 22:00:00 NR 14.8000 124.600 main 95 __________O___ -1 14.8000 124.600 7 5 282

Digital Typhoon Data and Search

About IBTrACS Database

This database is a web-friendly format of International Best Track Archive for Climate Stewardship (IBTrACS), a global best track data archive curated by NOAA dating back to 1842.

Updated: 2021-12-06